Mirko Caputo

Chefscout - Lecce
22 Feb 2028
Dienstag
Verarbeitung

Persönlichkeit

Anpassungsfähigkeit (19) Ehrgeiz (7) Kontroverse (7) Loyalität (9) Druck (18) Professionalität (14) Fairness (17) Temperament (9)

Profil

Trainerstil Demokratisch
Lizenz Kontinentale B
Entschlossenheit 8
Menschenführung 10
Motivation 6
Disziplin 6
Arbeitszufriedenheit
100%
Ermüdung
0%
Rolle Chefscout
Gehalt 81.9K p/W
Vertrag 14.03.2028

Leistung

Verhalten Gut
Trainingseffektivität
40%
Spielerentwicklung
55%
Verletzungsprävention
25%
Taktische Umsetzung
60%

Letzte Ereignisse

Vertragsverhandlung begonnen jetzt
Nahm an einer Scouting-Besprechung teil jetzt
Empfahl ein Transferziel jetzt
Empfahl ein Transferziel jetzt
Empfahl ein Transferziel jetzt
Vertragsverhandlung begonnen 7T her
Vertragsverhandlung begonnen 7T her
Vertragsverhandlung begonnen 7T her

Aktuell beobachtet

141
Spieler Verein Status Fähigkeit Vertrauen Beobachtet Zuletzt beobachtet Letzte Stimme
Gaetano Letizia Pescara Aktiv 103 / 105 51% 1 24.01.2028 -
Mao Hosoya Everton Verhandlung 134 / 135 67% 1 01.01.2028 Befürworten
Aurélien Scheidler Tondela Verhandlung 119 / 119 67% 1 01.01.2028 Befürworten
Andrea Franzoni Virtus Entella Aktiv 108 / 121 48% 1 21.06.2027 -
Kazunari Kita Real Sociedad Aktiv 104 / 107 40% 1 14.06.2027 -
Leonardo Mendicino Bari Aktiv 106 / 118 40% 4 01.06.2027 -
Daniel Kelly Oxford United Aktiv 99 / 125 40% 3 01.06.2027 -
Dion Beljo Standard Liege Verhandlung 131 / 132 66% 1 01.06.2027 Befürworten
Khama Dolly Utrecht Verhandlung 123 / 124 67% 1 01.06.2027 Befürworten
Tommaso Pobega Bologna Aktiv 141 / 152 40% 1 29.05.2027 -
Keagan Tau Ajax Cape Town Aktiv 111 / 81 40% 3 27.05.2027 -
Andrea Bertoncini Carpi Aktiv 96 / 91 40% 2 27.05.2027 -
Lucas Da Cunha Como Aktiv 138 / 146 40% 3 25.05.2027 -
Adam Bakoune Ospitaletto Aktiv 84 / 113 40% 3 25.05.2027 -
Josh King Chelsea Aktiv 142 / 155 40% 3 25.05.2027 -
Jurgen Ekkelenkamp Udinese Aktiv 142 / 142 40% 1 25.05.2027 -
Kamaldeen Sulemana Atalanta Aktiv 149 / 140 40% 3 23.05.2027 -
Gonçalo Oliveira Benfica Aktiv 99 / 108 40% 2 23.05.2027 -
Matvey Kislyak CSKA Moscow Aktiv 149 / 126 40% 4 22.05.2027 -
Riley Owen Trento Aktiv 111 / 115 40% 1 20.05.2027 -
Eddy Kouadio Crotone Aktiv 111 / 94 40% 2 19.05.2027 -
Zaïd BafdilI Sporting CP Aktiv 95 / 94 40% 1 19.05.2027 -
Adrián Bernabé Parma Aktiv 148 / 143 40% 2 18.05.2027 -
Antoine Bernede Hellas Verona Aktiv 121 / 137 40% 2 18.05.2027 -
Jofre Torrents Ajax Aktiv 120 / 121 40% 3 17.05.2027 -
Juan Rodríguez Cagliari Aktiv 107 / 126 40% 1 17.05.2027 -
Nadir Zortea Bologna Aktiv 142 / 143 40% 2 16.05.2027 -
Jayden Addai Como Aktiv 135 / 131 40% 2 16.05.2027 -
Tobias Slotsager Casertana Aktiv 102 / 108 40% 1 15.05.2027 -
Mattia Felici Cagliari Aktiv 120 / 141 40% 4 13.05.2027 -
Romano Schmid Frosinone Aktiv 157 / 155 40% 6 09.05.2027 -
Hlompho Lorch Ajax Cape Town Aktiv 101 / 92 40% 2 08.05.2027 -
Lewis Ferguson Bologna Aktiv 131 / 144 40% 5 06.05.2027 -
Mattéo Tramoni Pisa Aktiv 118 / 137 40% 1 05.05.2027 -
Samuele Birindelli Monza Aktiv 135 / 113 40% 1 05.05.2027 -
Mikael Egill Ellertsson Genoa Aktiv 146 / 147 40% 3 04.05.2027 -
Rivaldo Grobler Free State Stars Aktiv 109 / 110 40% 1 04.05.2027 -
Samuele di Benedetto Bari Aktiv 118 / 114 40% 3 30.04.2027 -
Martim Cunha Porto Aktiv 104 / 103 40% 1 29.04.2027 -
Matías Gómez Granada Aktiv 115 / 115 40% 3 27.04.2027 -
Zakaria Aboukhlal Torino Aktiv 149 / 142 40% 3 25.04.2027 -
Dmitry Pestryakov Dinamo Moscow Aktiv 112 / 118 40% 2 24.04.2027 -
Andrea Colpani Monza Aktiv 133 / 147 40% 3 24.04.2027 -
Unai Gómez Udinese Aktiv 140 / 128 40% 4 24.04.2027 -
Jordan Zemura Udinese Aktiv 139 / 147 40% 5 22.04.2027 -
Raoul Bellanova Atalanta Aktiv 150 / 153 40% 3 17.04.2027 -
Romano Floriani Mussolini Avellino Aktiv 133 / 137 40% 1 16.04.2027 -
Pietro Reggiori Pro Patria Aktiv 104 / 93 40% 2 15.04.2027 -
Nicolò Cambiaghi Bologna Aktiv 132 / 127 40% 4 14.04.2027 -
Samuele Angori Pisa Aktiv 133 / 130 40% 3 10.04.2027 -
Tomáš Suslov Hellas Verona Aktiv 134 / 126 40% 2 10.04.2027 -
Zane Albarus Cambridge United Aktiv 95 / 105 40% 1 10.04.2027 -
Alessandro Bianco Modena Aktiv 143 / 127 40% 1 09.04.2027 -
Keagan Phiri Platinum Stars Aktiv 89 / 99 40% 2 06.04.2027 -
Luciano Peluso Giugliano Aktiv 102 / 107 40% 1 05.04.2027 -
Vasilije Novičić IMT Aktiv 97 / 93 40% 1 05.04.2027 -
Cristian Shpendi Cesena Aktiv 138 / 139 40% 4 23.03.2027 -
Ronwen Phiri Platinum Stars Aktiv 102 / 117 40% 1 22.03.2027 -
Marcelo Allende Mamelodi Sundowns Aktiv 115 / 126 40% 2 18.03.2027 -
Nicolò Zaniolo Udinese Aktiv 134 / 136 40% 4 16.03.2027 -
Jesús Rodríguez Como Aktiv 132 / 143 40% 1 16.03.2027 -
Cemran Dansin Orlando Pirates Aktiv 125 / 96 40% 1 14.03.2027 -
Jens Odgaard Bologna Aktiv 139 / 152 40% 5 08.03.2027 -
Christ Inao Oulaï Fiorentina Aktiv 129 / 127 40% 2 07.03.2027 -
Davide Bartesaghi AC Milan Aktiv 131 / 145 40% 1 06.03.2027 -
Sascha Britschgi Padova Aktiv 133 / 118 40% 1 06.03.2027 -
Tiago Freitas Benfica Aktiv 121 / 117 40% 1 02.03.2027 -
Filippo Ranocchia Palermo Aktiv 118 / 121 40% 3 28.02.2027 -
Kristian Thorstvedt Sassuolo Aktiv 125 / 138 40% 2 17.02.2027 -
Juan Giménez Celta Aktiv 102 / 117 40% 1 07.02.2027 -
Reda Khadra Qarabag Aktiv 136 / 122 40% 2 04.02.2027 -
Petar Stanić Ludogorets Aktiv 133 / 136 40% 2 03.02.2027 -
Ruben van Bommel Ferencvaros Aktiv 115 / 146 40% 2 01.02.2027 -
Jefry Zapata Danubio Verhandlung 118 / 118 67% 1 01.01.2027 Befürworten
Bongani Mothiba SuperSport United Aktiv 65 / 63 40% 2 31.12.2026 -
Mohammed Yahaya Great Olympics Aktiv 92 / 93 40% 1 31.12.2026 -
Gustav Isaksen Lazio Aktiv 132 / 147 40% 1 27.12.2026 -
Brayan León Mamelodi Sundowns Aktiv 106 / 108 40% 1 25.12.2026 -
Robert Mizo Ashanti Gold Aktiv 104 / 103 40% 1 23.12.2026 -
Vitinha Genoa Aktiv 135 / 120 40% 1 21.12.2026 -
Giacomo Raspadori Atalanta Aktiv 140 / 140 40% 4 20.12.2026 -
Jacques Siwe Rubin Aktiv 116 / 98 40% 2 20.12.2026 -
Aleksa Terzić Frosinone Aktiv 137 / 125 40% 1 16.12.2026 -
Albert Rusnak FK Senica Aktiv 90 / 82 40% 1 13.12.2026 -
Etiosa Ighodaro Kaizer Chiefs Aktiv 112 / 93 40% 4 08.12.2026 -
David Romero Parma Aktiv 112 / 123 40% 2 08.12.2026 -
José Martínes CSKA 1948 Aktiv 98 / 113 40% 1 07.12.2026 -
Evidence Makgopa Orlando Pirates Aktiv 101 / 102 40% 1 07.12.2026 -
Giuseppe Di Serio Spezia Aktiv 127 / 112 40% 1 06.12.2026 -
Yan Diomandé Real Madrid Aktiv 144 / 143 40% 2 05.12.2026 -
Sayfallah Ltaief Cracovia Aktiv 120 / 120 40% 1 03.12.2026 -
Wessam Abou Ali Columbus Crew Aktiv 115 / 141 40% 1 01.12.2026 -
Assad Al Hamlawi Universitatea Craiova Aktiv 135 / 114 40% 1 30.11.2026 -
Mandla Mahlangu Ajax Cape Town Aktiv 114 / 104 40% 1 29.11.2026 -
Amin Sarr Hellas Verona Aktiv 130 / 125 40% 2 27.11.2026 -
Themba Ngcobo SuperSport United Aktiv 115 / 100 40% 2 23.11.2026 -
Rômulo RB Leipzig Aktiv 146 / 140 40% 1 22.11.2026 -
Ammar Ramadan DAC Dunajska Streda Aktiv 134 / 111 40% 1 20.11.2026 -
Kévin Denkey FC Cincinnati Aktiv 115 / 125 40% 6 18.11.2026 -
Christos Mouzakitis Hull City Aktiv 120 / 135 40% 1 17.11.2026 -
Peter Christiansen Viking Aktiv 107 / 122 40% 1 15.11.2026 -
Armand Laurienté Sassuolo Aktiv 136 / 145 40% 1 12.11.2026 -
Tijjani Noslin Lazio Aktiv 123 / 140 40% 3 09.11.2026 -
Agustín Módica Gimnasia y Esgrima Aktiv 114 / 131 40% 1 07.11.2026 -
David Miculescu FCSB Aktiv 110 / 106 40% 1 05.11.2026 -
Luciano Gondou CSKA Moscow Aktiv 138 / 133 40% 2 04.11.2026 -
Dejan Joveljić Seattle Sounders Aktiv 114 / 110 40% 2 01.11.2026 -
John Yeboah Venezia Aktiv 114 / 113 40% 1 31.10.2026 -
Kenan Dervišagić Floriana Aktiv 97 / 93 40% 1 29.10.2026 -
Erison Kawasaki Frontale Aktiv 151 / 120 40% 1 29.10.2026 -
Aune Heggebø West Bromwich Albion Aktiv 129 / 131 40% 1 23.10.2026 -
Tiago Palacios Estudiantes Aktiv 128 / 139 40% 1 21.10.2026 -
Alexander Díaz Deportivo Riestra Aktiv 117 / 124 40% 1 19.10.2026 -
Ethan Galbraith Swansea City Aktiv 129 / 127 40% 1 19.10.2026 -
Lorent Tolaj Plymouth Argyle Aktiv 106 / 125 40% 1 17.10.2026 -
Bryan Ramírez FC Cincinnati Aktiv 114 / 115 40% 1 17.10.2026 -
Marquinhos Spartak Moscow Aktiv 124 / 139 40% 1 16.10.2026 -
Bénie Traoré New York City Aktiv 122 / 145 40% 2 12.10.2026 -
Nicolò Tresoldi Club Brugge Aktiv 139 / 123 40% 3 12.10.2026 -
Mikkel Damsgaard Brentford Aktiv 155 / 143 40% 1 10.10.2026 -
Gonzalo Fulham Aktiv 153 / 154 40% 1 04.10.2026 -
Duncan McGuire Houston Dynamo Aktiv 146 / 112 40% 1 01.10.2026 -
Gabriel Martinelli Brighton Aktiv 156 / 150 40% 1 24.09.2026 -
Tadeo Allende Inter Miami CF Aktiv 125 / 121 40% 1 24.09.2026 -
Yousef Salech Cardiff City Aktiv 122 / 123 40% 1 23.09.2026 -
Alonso Martínez New York City Aktiv 138 / 107 40% 1 22.09.2026 -
Adnan Courtois KV Oostende Aktiv 138 / 123 40% 2 20.09.2026 -
Noah Okafor Leeds United Aktiv 139 / 140 40% 1 19.09.2026 -
Santiago Sala Güemes Aktiv 122 / 116 40% 1 18.09.2026 -
Juan Rocca Gimnasia y Tiro Aktiv 119 / 107 40% 2 17.09.2026 -
August Priske Birmingham Aktiv 133 / 120 40% 1 17.09.2026 -
Mauro Valiente Estudiantes Aktiv 102 / 106 40% 1 16.09.2026 -
Zeki Amdouni Burnley Aktiv 133 / 124 40% 1 16.09.2026 -
Manfred Ugalde Spartak Moscow Aktiv 114 / 110 40% 1 15.09.2026 -
Dango Ouattara Brentford Aktiv 146 / 145 40% 1 13.09.2026 -
Sebastián Cocimano Nueva Chicago Aktiv 101 / 114 40% 1 11.09.2026 -
Luciano Cosentino Wanderers Aktiv 111 / 113 40% 1 08.09.2026 -
Efraín Álvarez Guadalajara Aktiv 138 / 137 40% 1 07.09.2026 -
Tom Cannon Sheffield United Aktiv 128 / 131 40% 1 07.09.2026 -
Kevin Fulham Aktiv 152 / 148 40% 1 01.08.2026 -
Aaron Hickey Brentford Aktiv 131 / 150 40% 1 01.08.2026 -